WetterOnline ( http://www.wetteronline.at )

Wetter aktuell Hamburg

Aktuelles Wetter: Hamburg/Fuhlsbüttel (15m)

6-stündlich | Neueste Meldungen
Ortszeit Temperatur Wetter
Di, 19.03. 1:00 3.4° C fast wolkenlos
Mo, 18.03. 19:00 5.3° C leicht bewölkt
Mo, 18.03. 13:00 4.9° C bewölkt
Mo, 18.03. 7:00 4.7° C bewölkt
Mo, 18.03. 1:00 4.3° C bewölkt
So, 17.03. 19:00 6.7° C leicht bewölkt
So, 17.03. 13:00 8.1° C leichte Schauer
So, 17.03. 7:00 9.0° C leichter Regen
Ortszeit Temperatur Wetter
Di, 19.03. 1:20 3° C leicht bewölkt
Di, 19.03. 1:00 3.4° C fast wolkenlos
Di, 19.03. 0:50 4° C leicht bewölkt
Di, 19.03. 0:40 3.4° C -
Di, 19.03. 0:30 3.5° C -
Di, 19.03. 0:20 3.5° C -
Di, 19.03. 0:00 3.8° C wolkig
Mo, 18.03. 23:30 3.8° C -
Mo, 18.03. 23:00 3.6° C leicht bewölkt
Mo, 18.03. 22:30 3.6° C -
Mo, 18.03. 22:00 3.9° C leicht bewölkt
Ortszeit Relative Feuchte Sichtweite
Di, 19.03. 1:00 87% 25 km
Mo, 18.03. 19:00 73% 25 km
Mo, 18.03. 13:00 79% 15 km
Mo, 18.03. 7:00 80% 25 km
Mo, 18.03. 1:00 79% 35 km
So, 17.03. 19:00 64% 40 km
So, 17.03. 13:00 63% 30 km
So, 17.03. 7:00 81% 15 km
Ortszeit Relative Feuchte Sichtweite
Di, 19.03. 1:20 87% >10 km
Di, 19.03. 1:00 87% 25 km
Di, 19.03. 0:50 87% >10 km
Di, 19.03. 0:40 87% -
Di, 19.03. 0:30 87% 21 km
Di, 19.03. 0:20 87% -
Di, 19.03. 0:00 85% 25 km
Mo, 18.03. 23:30 84% 22 km
Mo, 18.03. 23:00 82% 25 km
Mo, 18.03. 22:30 80% 21 km
Mo, 18.03. 22:00 78% 25 km
Ortszeit Niederschlagsmenge Niederschlagsart
Di, 19.03. 1:00 0.4 l/m2 in 6 Std. Schauer
Mo, 18.03. 19:00 2 l/m2 in 12 Std. Schauer
Mo, 18.03. 13:00 1 l/m2 in 6 Std. Schauer
Mo, 18.03. 7:00 1 l/m2 in 12 Std. Schauer
Mo, 18.03. 1:00 0.3 l/m2 in 6 Std. Schauer
So, 17.03. 19:00 3 l/m2 in 12 Std. Schauer
So, 17.03. 13:00 1 l/m2 in 6 Std. Regen
So, 17.03. 7:00 0.1 l/m2 in 12 Std. Regen
Ortszeit Niederschlagsmenge Niederschlagsart
Di, 19.03. 1:20 keine Meldung -
Di, 19.03. 1:00 0.0 l/m2 in 1 Std. Schauer
Di, 19.03. 0:50 keine Meldung -
Di, 19.03. 0:40 keine Meldung -
Di, 19.03. 0:30 0.0 l/m2 in 1 Std. -
Di, 19.03. 0:20 keine Meldung -
Di, 19.03. 0:00 0.1 l/m2 in 1 Std. Regenschauer
Mo, 18.03. 23:30 0.1 l/m2 in 1 Std. -
Mo, 18.03. 23:00 0.0 l/m2 in 1 Std. -
Mo, 18.03. 22:30 0.0 l/m2 in 1 Std. -
Mo, 18.03. 22:00 0.0 l/m2 in 1 Std. Schauer
Ortszeit Stärke Spitze Richtung
km/h Bft. km/h Grad Sektor
Di, 19.03. 1:00 13 3 48 260° W
Mo, 18.03. 19:00 25 4 76 280° W
Mo, 18.03. 13:00 33 5 74 280° W
Mo, 18.03. 7:00 28 4 54 240° SW
Mo, 18.03. 1:00 31 5 52 240° SW
So, 17.03. 19:00 18 3 50 260° W
So, 17.03. 13:00 28 4 54 240° SW
So, 17.03. 7:00 32 5 65 220° SW
Ortszeit Stärke Spitze Richtung
km/h Bft. km/h Grad Sektor
Di, 19.03. 1:20 13 3 - 260° W
Di, 19.03. 1:00 13 3 20 260° W
Di, 19.03. 0:50 13 3 - 260° W
Di, 19.03. 0:40 11 2 - 260° W
Di, 19.03. 0:30 13 3 20 250° W
Di, 19.03. 0:20 13 3 - 250° W
Di, 19.03. 0:00 9 2 26 260° W
Mo, 18.03. 23:30 14 3 25 280° W
Mo, 18.03. 23:00 14 3 25 250° W
Mo, 18.03. 22:30 14 3 25 260° W
Mo, 18.03. 22:00 17 3 30 270° W
Ortszeit Untergrenze Bedeckung Gattung
total tief tief mittel hoch
Di, 19.03. 1:00 960 m 1/8 1/8 Sc - -
Mo, 18.03. 19:00 600 m 3/8 3/8 Cu - -
Mo, 18.03. 13:00 450 m 7/8 7/8 Cb - -
Mo, 18.03. 7:00 450 m 7/8 7/8 Cu - -
Mo, 18.03. 1:00 360 m 7/8 7/8 Cb - -
So, 17.03. 19:00 - 4/8 4/8 Cb - -
So, 17.03. 13:00 1110 m 7/8 7/8 Cb - -
So, 17.03. 7:00 600 m 8/8 7/8 Sc - -
Ortszeit Bedeckungsgrad in Achtel und Wolkenuntergrenze
Di, 19.03. 1:20 1-2(960m)
Di, 19.03. 1:00 1(960m)
Di, 19.03. 0:50 1-2(960m)
Di, 19.03. 0:40 -
Di, 19.03. 0:30 -
Di, 19.03. 0:20 -
Di, 19.03. 0:00 5(1200m)
Mo, 18.03. 23:30 -
Mo, 18.03. 23:00 4
Mo, 18.03. 22:30 -
Mo, 18.03. 22:00 2(1140m)
Ortszeit Luftdruck NN (hPa) Tendenz (hPa in 3 Std.)
Di, 19.03. 1:00 1020 + 1,8
Mo, 18.03. 19:00 1015 + 3,3
Mo, 18.03. 13:00 1010 + 3,2
Mo, 18.03. 7:00 1005 + 1,7
Mo, 18.03. 1:00 1003 + 0,5
So, 17.03. 19:00 1001 + 2,3
So, 17.03. 13:00 997 + 1,8
So, 17.03. 7:00 992 - 0,9
Ortszeit Luftdruck NN (hPa) Tendenz (hPa in 3 Std.)
Di, 19.03. 1:20 1019 keine Meldung
Di, 19.03. 1:00 1020 + 1,8
Di, 19.03. 0:50 1019 keine Meldung
Di, 19.03. 0:40 1019 keine Meldung
Di, 19.03. 0:30 1019 + 1,6
Di, 19.03. 0:20 1019 keine Meldung
Di, 19.03. 0:00 1019 + 1,9
Mo, 18.03. 23:30 1019 + 2,3
Mo, 18.03. 23:00 1018 + 2,3
Mo, 18.03. 22:30 1018 + 2,4
Mo, 18.03. 22:00 1018 + 2,7
Ortszeit Schneehöhe (cm)
Di, 19.03. 1:00 0
Mo, 18.03. 19:00 0
Mo, 18.03. 13:00 0
Mo, 18.03. 7:00 0
Mo, 18.03. 1:00 0
So, 17.03. 19:00 0
So, 17.03. 13:00 0
So, 17.03. 7:00 0
Ortszeit Schneehöhe (cm)
Di, 19.03. 1:20 -
Di, 19.03. 1:00 0
Di, 19.03. 0:50 -
Di, 19.03. 0:40 -
Di, 19.03. 0:30 -
Di, 19.03. 0:20 -
Di, 19.03. 0:00 -
Mo, 18.03. 23:30 -
Mo, 18.03. 23:00 -
Mo, 18.03. 22:30 -
Mo, 18.03. 22:00 -
Link zu dieser Seite / Seite empfehlen

Das Wetter in ...